Terminal Aerodrome Forecast
Issued by NWS

Home | Current Version | Previous Version | Text Only | Print | Product List | Glossary On
Versions: 1 2 3 4 5 6 7 8 9 10 11 12 13 14
000
FTUS45 KBOI 272321
TAFBKE
TAF
KBKE 272321Z 2800/2824 VRB06KT 5SM -SN SCT030 OVC050
      TEMPO 2804/2806 1/2SM SN OVC009
     FM281800 32010G15KT P6SM BKN050 OVC100=

USA.gov is the U.S. government's official web portal to all federal, state and local government web resources and services.